Time;durP1;ratioP1;P1;durP2;ratioP2;P2;SDS_P1;SDS_P2;PMS_P1;PMS_P2;Temp;Humidity;BMP_temperature;BMP_pressure;BME280_temperature;BME280_humidity;BME280_pressure;Samples;Min_cycle;Max_cycle;Signal;HPM_P1;HPM_P2
2023/11/04 00:02:21;;;;;;;3.35;0.70;;;7.40;99.90;;;;;;5068645;28;20037;-68
2023/11/04 00:04:47;;;;;;;2.42;0.50;;;7.50;99.90;;;;;;5068365;28;20119;-68
2023/11/04 00:07:13;;;;;;;1.30;0.70;;;7.40;99.90;;;;;;5069768;28;20047;-68
2023/11/04 00:09:38;;;;;;;3.42;0.65;;;7.40;99.90;;;;;;5083625;28;20490;-68
2023/11/04 00:12:04;;;;;;;3.10;0.63;;;7.30;99.90;;;;;;5064088;28;20033;-68
2023/11/04 00:14:30;;;;;;;3.80;0.57;;;7.30;99.90;;;;;;5070315;28;20036;-68
2023/11/04 00:16:55;;;;;;;2.35;0.77;;;7.30;99.90;;;;;;5069153;28;20544;-68
2023/11/04 00:19:21;;;;;;;1.30;0.50;;;7.30;99.90;;;;;;5068273;28;20041;-68
2023/11/04 00:21:47;;;;;;;4.15;0.82;;;7.30;99.90;;;;;;5066529;28;20099;-68
2023/11/04 00:24:12;;;;;;;1.08;0.40;;;7.20;99.90;;;;;;5069393;28;20052;-68
2023/11/04 00:26:38;;;;;;;5.25;1.02;;;7.30;99.90;;;;;;5069053;28;20036;-67
2023/11/04 00:29:05;;;;;;;1.70;0.60;;;7.30;99.90;;;;;;5068693;28;20053;-68
2023/11/04 00:31:33;;;;;;;3.67;0.63;;;7.20;99.90;;;;;;5066888;28;20044;-68
2023/11/04 00:34:02;;;;;;;1.17;0.63;;;7.20;99.90;;;;;;5066266;28;20541;-68
2023/11/04 00:36:29;;;;;;;3.90;0.52;;;7.30;99.90;;;;;;5068663;28;20037;-67
2023/11/04 00:38:54;;;;;;;1.33;0.50;;;7.20;99.90;;;;;;5066812;28;20040;-67
2023/11/04 00:41:20;;;;;;;2.15;0.40;;;7.20;99.90;;;;;;5063044;28;20662;-68
2023/11/04 00:43:46;;;;;;;1.63;0.40;;;7.20;99.90;;;;;;5068613;28;20040;-68
2023/11/04 00:46:12;;;;;;;3.20;0.93;;;7.30;99.90;;;;;;5067663;28;20040;-68
2023/11/04 00:48:38;;;;;;;1.58;0.60;;;7.40;99.90;;;;;;5067434;28;20040;-67
2023/11/04 00:51:04;;;;;;;2.03;0.60;;;7.40;99.90;;;;;;5068473;28;20102;-67
2023/11/04 00:53:29;;;;;;;1.55;0.50;;;7.40;99.90;;;;;;5063963;28;20039;-68
2023/11/04 00:55:55;;;;;;;1.30;0.40;;;7.50;99.90;;;;;;5085752;28;20461;-68
2023/11/04 00:58:21;;;;;;;2.08;0.65;;;7.50;99.90;;;;;;5065394;28;20037;-68
2023/11/04 01:00:46;;;;;;;1.15;0.35;;;7.60;99.90;;;;;;5063679;28;20048;-68
2023/11/04 01:03:12;;;;;;;0.70;0.30;;;7.60;99.90;;;;;;5049941;28;20471;-68
2023/11/04 01:05:37;;;;;;;2.10;0.40;;;7.60;99.90;;;;;;5069570;28;20091;-68
2023/11/04 01:08:04;;;;;;;1.13;0.50;;;7.60;99.90;;;;;;5065599;28;20040;-68
2023/11/04 01:10:30;;;;;;;0.85;0.30;;;7.70;99.90;;;;;;5063428;28;20059;-68
2023/11/04 01:12:56;;;;;;;1.67;0.77;;;7.70;99.90;;;;;;5068340;28;20169;-68
2023/11/04 01:15:22;;;;;;;2.33;0.73;;;7.70;99.90;;;;;;5067541;28;20115;-68
2023/11/04 01:17:47;;;;;;;2.20;0.45;;;7.70;99.90;;;;;;5067201;28;20036;-68
2023/11/04 01:20:13;;;;;;;1.40;0.40;;;7.80;99.90;;;;;;5062550;28;20395;-68
2023/11/04 01:22:39;;;;;;;1.90;0.40;;;7.80;99.90;;;;;;5069839;28;20467;-68
2023/11/04 01:25:06;;;;;;;1.35;0.38;;;7.80;99.90;;;;;;5066611;28;20064;-68
2023/11/04 01:27:32;;;;;;;0.77;0.40;;;7.80;99.90;;;;;;5068406;28;20155;-68
2023/11/04 01:29:57;;;;;;;2.25;0.45;;;7.80;99.90;;;;;;5067364;28;20131;-68
2023/11/04 01:32:23;;;;;;;1.58;0.40;;;7.80;99.90;;;;;;5068416;28;20470;-68
2023/11/04 01:34:49;;;;;;;1.60;0.40;;;7.90;99.90;;;;;;5066453;28;20041;-68
2023/11/04 01:37:14;;;;;;;1.10;0.50;;;7.90;99.90;;;;;;5067528;28;20037;-68
2023/11/04 01:39:40;;;;;;;1.33;0.47;;;7.90;99.90;;;;;;5067787;28;20115;-68
2023/11/04 01:42:06;;;;;;;1.02;0.50;;;7.90;99.90;;;;;;5064773;28;20048;-68
2023/11/04 01:44:32;;;;;;;3.75;0.50;;;8.00;99.90;;;;;;5069339;28;20033;-68
2023/11/04 01:46:59;;;;;;;1.70;0.40;;;7.90;99.90;;;;;;5100217;27;20067;-68
2023/11/04 01:49:27;;;;;;;3.00;0.40;;;8.00;99.90;;;;;;5068587;28;20048;-68
2023/11/04 01:51:54;;;;;;;1.98;0.52;;;8.00;99.90;;;;;;5068230;28;20029;-68
2023/11/04 01:54:20;;;;;;;3.03;0.70;;;8.00;99.90;;;;;;5067860;28;20094;-68
2023/11/04 01:56:46;;;;;;;1.60;0.50;;;8.10;99.90;;;;;;5066350;28;20131;-68
2023/11/04 01:59:12;;;;;;;1.67;0.50;;;8.10;99.90;;;;;;5062824;28;20573;-68
2023/11/04 02:01:40;;;;;;;1.17;0.40;;;8.10;99.90;;;;;;5067418;28;20056;-68
2023/11/04 02:04:06;;;;;;;2.78;0.73;;;8.10;99.90;;;;;;5064290;28;20059;-68
2023/11/04 02:06:32;;;;;;;1.50;0.40;;;8.10;99.90;;;;;;5065976;28;20135;-68
2023/11/04 02:08:58;;;;;;;3.50;0.85;;;8.20;99.90;;;;;;5066478;28;20127;-68
2023/11/04 02:11:24;;;;;;;2.38;0.63;;;8.10;99.90;;;;;;5065966;28;20056;-68
2023/11/04 02:13:49;;;;;;;2.10;1.17;;;8.30;99.90;;;;;;5066409;28;20390;-68
2023/11/04 02:16:15;;;;;;;3.58;1.45;;;8.20;99.90;;;;;;5065290;28;20032;-67
2023/11/04 02:18:41;;;;;;;1.75;0.85;;;8.30;99.90;;;;;;5065808;28;20055;-67
2023/11/04 02:21:07;;;;;;;2.17;1.00;;;8.30;99.90;;;;;;5066033;28;20068;-68
2023/11/04 02:23:33;;;;;;;2.05;0.63;;;8.30;99.90;;;;;;5065070;28;20075;-68
2023/11/04 02:25:58;;;;;;;2.10;0.70;;;8.30;99.90;;;;;;5066039;28;20103;-68
2023/11/04 02:28:24;;;;;;;1.85;0.82;;;8.30;99.90;;;;;;5065975;28;20057;-68
2023/11/04 02:30:49;;;;;;;1.33;0.75;;;8.40;99.90;;;;;;5068045;28;20047;-68
2023/11/04 02:33:16;;;;;;;6.13;1.17;;;8.40;99.90;;;;;;5066999;28;20410;-68
2023/11/04 02:35:43;;;;;;;2.42;0.90;;;8.40;99.90;;;;;;5068059;28;20098;-68
2023/11/04 02:38:08;;;;;;;3.78;1.30;;;8.40;99.90;;;;;;5067898;28;20384;-68
2023/11/04 02:40:34;;;;;;;3.05;0.90;;;8.40;99.90;;;;;;5065362;28;20074;-68
2023/11/04 02:43:00;;;;;;;2.08;0.90;;;8.40;99.90;;;;;;5066145;28;20044;-68
2023/11/04 02:45:25;;;;;;;2.10;1.27;;;8.50;99.90;;;;;;5065999;28;20071;-68
2023/11/04 02:47:51;;;;;;;3.75;1.02;;;8.50;99.90;;;;;;5067319;28;20040;-68
2023/11/04 02:50:17;;;;;;;6.07;1.02;;;8.50;99.90;;;;;;5098047;28;20387;-68
2023/11/04 02:52:43;;;;;;;4.03;0.70;;;8.50;99.90;;;;;;5063785;28;20068;-68
2023/11/04 02:55:09;;;;;;;3.00;0.88;;;8.50;99.90;;;;;;5065981;28;20045;-68
2023/11/04 02:57:35;;;;;;;4.78;1.00;;;8.50;99.90;;;;;;5066399;28;20048;-68
2023/11/04 03:00:00;;;;;;;3.30;1.02;;;8.40;99.90;;;;;;5064425;28;20089;-68
2023/11/04 03:02:26;;;;;;;5.93;1.40;;;8.50;99.90;;;;;;5066049;28;20155;-68
2023/11/04 03:04:53;;;;;;;3.70;1.20;;;8.50;99.90;;;;;;5071591;28;20410;-68
2023/11/04 03:07:20;;;;;;;1.92;1.38;;;8.40;99.90;;;;;;5064677;28;20045;-68
2023/11/04 03:09:46;;;;;;;2.80;1.13;;;8.40;99.90;;;;;;5062193;28;20073;-68
2023/11/04 03:12:12;;;;;;;5.55;1.20;;;8.40;99.90;;;;;;5067984;28;20105;-68
2023/11/04 03:14:37;;;;;;;2.97;0.95;;;8.50;99.90;;;;;;5065313;28;20036;-68
2023/11/04 03:17:04;;;;;;;4.20;1.13;;;8.50;99.90;;;;;;5067897;28;20380;-68
2023/11/04 03:19:30;;;;;;;4.10;1.23;;;8.40;99.90;;;;;;5069996;28;20040;-68
2023/11/04 03:21:56;;;;;;;5.80;1.27;;;8.40;99.90;;;;;;5070571;28;20044;-68
2023/11/04 03:24:22;;;;;;;4.47;1.17;;;8.50;99.90;;;;;;5067866;28;20040;-68
2023/11/04 03:26:48;;;;;;;5.75;1.05;;;8.50;99.90;;;;;;5070641;28;20522;-68
2023/11/04 03:29:14;;;;;;;2.13;1.13;;;8.40;99.90;;;;;;5069534;28;20044;-68
2023/11/04 03:31:40;;;;;;;5.22;1.23;;;8.50;99.90;;;;;;5068376;28;20029;-68
2023/11/04 03:34:06;;;;;;;3.75;1.35;;;8.50;99.90;;;;;;5100555;28;20046;-68
2023/11/04 03:36:31;;;;;;;4.13;1.33;;;8.50;99.90;;;;;;5068281;28;20029;-67
2023/11/04 03:38:57;;;;;;;3.25;1.15;;;8.50;99.90;;;;;;5099877;28;20125;-68
2023/11/04 03:41:23;;;;;;;3.08;0.95;;;8.50;99.90;;;;;;5069693;28;20044;-68
2023/11/04 03:43:50;;;;;;;3.40;1.52;;;8.50;99.90;;;;;;5062519;28;20687;-68
2023/11/04 03:46:18;;;;;;;3.42;1.10;;;8.60;99.90;;;;;;5071310;28;20090;-68
2023/11/04 03:48:45;;;;;;;5.60;1.98;;;8.60;99.90;;;;;;5069312;28;20059;-68
2023/11/04 03:51:11;;;;;;;3.08;1.40;;;8.60;99.90;;;;;;5068934;28;20033;-68
2023/11/04 03:53:37;;;;;;;4.80;1.80;;;8.70;99.90;;;;;;5067187;28;20040;-68
2023/11/04 03:56:03;;;;;;;1.40;1.27;;;8.70;99.90;;;;;;5068778;28;20039;-68
2023/11/04 03:58:29;;;;;;;5.35;1.30;;;8.70;99.90;;;;;;5068631;28;20491;-68
2023/11/04 04:00:56;;;;;;;3.42;1.45;;;8.70;99.90;;;;;;5068589;28;20123;-68
2023/11/04 04:03:21;;;;;;;4.05;1.58;;;8.70;99.90;;;;;;5068909;28;20062;-68
2023/11/04 04:05:47;;;;;;;4.13;1.60;;;8.70;99.90;;;;;;5066574;28;20478;-68
2023/11/04 04:08:13;;;;;;;3.17;1.65;;;8.70;99.90;;;;;;5068344;28;20083;-68
2023/11/04 04:10:39;;;;;;;4.05;1.80;;;8.70;99.90;;;;;;5068521;28;20122;-68
2023/11/04 04:13:04;;;;;;;3.92;1.30;;;8.70;99.90;;;;;;5068815;28;20041;-68
2023/11/04 04:15:30;;;;;;;2.72;1.77;;;8.80;99.90;;;;;;5066552;28;20119;-68
2023/11/04 04:17:55;;;;;;;2.72;1.48;;;8.80;99.90;;;;;;5068728;28;20091;-68
2023/11/04 04:20:21;;;;;;;2.65;1.48;;;8.80;99.90;;;;;;5063886;28;20051;-68
2023/11/04 04:22:47;;;;;;;5.55;1.65;;;8.80;99.90;;;;;;5067243;28;20035;-68
2023/11/04 04:25:13;;;;;;;2.08;1.30;;;8.90;99.90;;;;;;5068042;28;20437;-68
2023/11/04 04:27:42;;;;;;;3.63;1.58;;;8.80;99.90;;;;;;5067085;28;20032;-68
2023/11/04 04:30:08;;;;;;;3.47;1.77;;;8.90;99.90;;;;;;5068852;28;20052;-68
2023/11/04 04:32:34;;;;;;;6.55;2.35;;;8.90;99.90;;;;;;5069731;28;20041;-68
2023/11/04 04:35:00;;;;;;;4.28;1.65;;;8.90;99.90;;;;;;5068757;28;20139;-68
2023/11/04 04:37:28;;;;;;;2.40;1.50;;;8.90;99.90;;;;;;5066976;28;20445;-68
2023/11/04 04:39:53;;;;;;;4.55;2.00;;;8.90;99.90;;;;;;5066681;28;20092;-68
2023/11/04 04:42:19;;;;;;;3.75;1.98;;;8.80;99.90;;;;;;5066886;28;20090;-67
2023/11/04 04:44:45;;;;;;;5.20;1.45;;;8.90;99.90;;;;;;5068918;28;20437;-67
2023/11/04 04:47:11;;;;;;;2.88;1.88;;;8.90;99.90;;;;;;5048426;28;20221;-67
2023/11/04 04:49:36;;;;;;;3.30;1.42;;;8.90;99.90;;;;;;5065861;28;20811;-67
2023/11/04 04:52:02;;;;;;;5.53;1.80;;;8.90;99.90;;;;;;5069126;28;20090;-67
2023/11/04 04:54:28;;;;;;;3.22;1.40;;;8.90;99.90;;;;;;5066489;28;20054;-67
2023/11/04 04:56:53;;;;;;;8.07;2.17;;;8.90;99.90;;;;;;5067353;28;20032;-67
2023/11/04 04:59:19;;;;;;;5.47;1.33;;;8.90;99.90;;;;;;5064681;28;20669;-68
2023/11/04 05:01:44;;;;;;;4.07;1.40;;;8.90;99.90;;;;;;5065893;28;20059;-68
2023/11/04 05:04:11;;;;;;;3.15;1.40;;;8.90;99.90;;;;;;5067875;28;20387;-68
2023/11/04 05:06:36;;;;;;;4.25;1.40;;;8.90;99.90;;;;;;5068908;28;20378;-68
2023/11/04 05:09:03;;;;;;;1.88;1.05;;;9.00;99.90;;;;;;5066206;28;20037;-68
2023/11/04 05:11:28;;;;;;;2.45;1.52;;;9.00;99.90;;;;;;5065627;28;20040;-68
2023/11/04 05:13:54;;;;;;;4.28;1.98;;;9.00;99.90;;;;;;5066014;28;20056;-68
2023/11/04 05:16:20;;;;;;;1.70;1.10;;;8.90;99.90;;;;;;5065970;28;20487;-68
2023/11/04 05:18:45;;;;;;;3.80;1.50;;;9.00;99.90;;;;;;5064267;28;20106;-68
2023/11/04 05:21:12;;;;;;;5.93;1.95;;;9.00;99.90;;;;;;5067942;28;20181;-68
2023/11/04 05:23:37;;;;;;;2.45;1.33;;;9.00;99.90;;;;;;5099971;28;20518;-68
2023/11/04 05:26:03;;;;;;;3.97;1.92;;;9.00;99.90;;;;;;5066884;28;20120;-68
2023/11/04 05:28:31;;;;;;;2.63;1.25;;;9.00;99.90;;;;;;5065745;28;20089;-68
2023/11/04 05:30:57;;;;;;;3.70;1.40;;;9.00;99.90;;;;;;5097115;28;20497;-68
2023/11/04 05:33:25;;;;;;;2.70;1.15;;;9.00;99.90;;;;;;5065830;28;21465;-68
2023/11/04 05:35:51;;;;;;;3.55;1.48;;;9.00;99.90;;;;;;5050664;28;20036;-68
2023/11/04 05:38:17;;;;;;;3.67;1.40;;;9.00;99.90;;;;;;5067779;28;20449;-68
2023/11/04 05:40:43;;;;;;;2.90;1.23;;;8.90;99.90;;;;;;5060828;28;20048;-67
2023/11/04 05:43:09;;;;;;;6.15;1.50;;;9.00;99.90;;;;;;5064885;28;20084;-67
2023/11/04 05:45:34;;;;;;;4.43;1.23;;;9.70;99.90;;;;;;5065796;28;20045;-68
2023/11/04 05:48:00;;;;;;;5.32;1.25;;;9.00;99.90;;;;;;5064006;28;20044;-68
2023/11/04 05:50:26;;;;;;;4.88;1.77;;;8.90;99.90;;;;;;5068136;28;20040;-68
2023/11/04 05:52:52;;;;;;;3.67;1.27;;;9.00;99.90;;;;;;5096582;28;20040;-67
2023/11/04 05:55:18;;;;;;;1.88;1.20;;;8.90;99.90;;;;;;5065939;28;20028;-67
2023/11/04 05:57:43;;;;;;;4.50;1.70;;;8.90;99.90;;;;;;5066355;28;20435;-67
2023/11/04 06:00:12;;;;;;;4.03;1.65;;;8.90;99.90;;;;;;5066910;28;20044;-67
2023/11/04 06:02:39;;;;;;;2.88;1.35;;;8.90;99.90;;;;;;5064175;28;20422;-67
2023/11/04 06:05:06;;;;;;;2.22;1.10;;;8.90;99.90;;;;;;5048249;28;20044;-67
2023/11/04 06:07:32;;;;;;;2.40;1.38;;;8.80;99.90;;;;;;5064099;28;20041;-67
2023/11/04 06:09:58;;;;;;;1.95;1.20;;;8.90;99.90;;;;;;5066331;28;20384;-67
2023/11/04 06:12:24;;;;;;;2.08;1.17;;;8.90;99.90;;;;;;5068531;28;20044;-67
2023/11/04 06:14:49;;;;;;;4.43;1.40;;;8.90;99.90;;;;;;5067783;28;20040;-67
2023/11/04 06:17:15;;;;;;;2.35;1.42;;;9.00;99.90;;;;;;5064676;28;20043;-67
2023/11/04 06:19:40;;;;;;;2.35;1.45;;;8.90;99.90;;;;;;5066795;28;20483;-67
2023/11/04 06:22:06;;;;;;;2.15;1.30;;;8.90;99.90;;;;;;5065442;28;20085;-67
2023/11/04 06:24:32;;;;;;;4.13;1.50;;;8.90;99.90;;;;;;5068390;28;20060;-68
2023/11/04 06:26:58;;;;;;;6.05;1.45;;;8.90;99.90;;;;;;5081610;28;20104;-68
2023/11/04 06:29:23;;;;;;;3.45;1.50;;;8.90;99.90;;;;;;5064499;28;20044;-68
2023/11/04 06:31:49;;;;;;;2.22;1.55;;;8.90;99.90;;;;;;5064150;28;20064;-68
2023/11/04 06:34:15;;;;;;;3.35;1.30;;;9.00;99.90;;;;;;5066614;28;20047;-68
2023/11/04 06:36:41;;;;;;;2.25;1.38;;;8.90;99.90;;;;;;5068241;28;20121;-68
2023/11/04 06:39:07;;;;;;;5.78;1.30;;;8.90;99.90;;;;;;5066193;28;20076;-68
2023/11/04 06:41:33;;;;;;;5.10;1.50;;;9.00;99.90;;;;;;5066635;28;20047;-68
2023/11/04 06:43:59;;;;;;;2.92;1.13;;;9.00;99.90;;;;;;5060294;28;20090;-68
2023/11/04 06:46:24;;;;;;;2.88;2.00;;;9.00;99.90;;;;;;5065299;28;20528;-68
2023/11/04 06:48:51;;;;;;;2.17;1.42;;;9.00;99.90;;;;;;5065312;28;20047;-68
2023/11/04 06:51:21;;;;;;;3.55;1.23;;;9.00;99.90;;;;;;5067275;28;20040;-68
2023/11/04 06:53:48;;;;;;;2.97;1.60;;;9.00;99.90;;;;;;5070577;28;20079;-68
2023/11/04 06:56:14;;;;;;;3.40;1.25;;;9.00;99.90;;;;;;5069678;28;20029;-68
2023/11/04 06:58:40;;;;;;;3.53;1.20;;;9.00;99.90;;;;;;5097759;28;20051;-68
2023/11/04 07:01:05;;;;;;;1.88;1.33;;;9.10;99.90;;;;;;5069772;28;20123;-67
2023/11/04 07:03:31;;;;;;;5.13;1.20;;;9.10;99.90;;;;;;5068921;28;20058;-67
2023/11/04 07:05:57;;;;;;;3.47;1.50;;;9.10;99.90;;;;;;5069740;28;20961;-67
2023/11/04 07:08:23;;;;;;;3.47;1.35;;;9.10;99.90;;;;;;5070924;28;20064;-67
2023/11/04 07:10:50;;;;;;;4.03;1.38;;;9.10;99.90;;;;;;5069438;28;20175;-68
2023/11/04 07:13:16;;;;;;;3.88;1.77;;;9.10;99.90;;;;;;5068338;28;20114;-68
2023/11/04 07:15:45;;;;;;;2.25;0.80;;;9.10;99.90;;;;;;5066570;28;20044;-68
2023/11/04 07:18:13;;;;;;;2.88;1.38;;;9.10;99.90;;;;;;5070263;28;20028;-68
2023/11/04 07:20:39;;;;;;;3.28;1.63;;;9.10;99.90;;;;;;5070435;28;20398;-67
2023/11/04 07:23:07;;;;;;;4.45;1.50;;;9.10;99.90;;;;;;5068856;28;20037;-67
2023/11/04 07:25:34;;;;;;;2.15;1.10;;;9.10;99.90;;;;;;5063531;28;20041;-67
2023/11/04 07:28:00;;;;;;;3.47;1.65;;;9.20;99.90;;;;;;5066894;28;20149;-67
2023/11/04 07:30:25;;;;;;;3.03;1.52;;;9.20;99.90;;;;;;5069366;28;20479;-67
2023/11/04 07:32:51;;;;;;;5.30;1.83;;;9.20;99.90;;;;;;5069323;28;20475;-67
2023/11/04 07:35:17;;;;;;;2.35;1.25;;;9.20;99.90;;;;;;5067159;28;20960;-67
2023/11/04 07:37:43;;;;;;;3.05;1.42;;;9.20;99.90;;;;;;5069853;28;20073;-67
2023/11/04 07:40:09;;;;;;;5.15;1.88;;;9.20;99.90;;;;;;5066013;28;20131;-68
2023/11/04 07:42:35;;;;;;;2.13;1.67;;;9.20;99.90;;;;;;5064737;28;20047;-68
2023/11/04 07:45:01;;;;;;;3.78;1.60;;;9.30;99.90;;;;;;5067667;28;20029;-68
2023/11/04 07:47:27;;;;;;;2.75;1.30;;;9.40;99.90;;;;;;5066443;28;20043;-68
2023/11/04 07:49:52;;;;;;;5.45;1.58;;;9.50;99.90;;;;;;5094824;28;20040;-68
2023/11/04 07:52:18;;;;;;;3.85;2.10;;;9.40;99.90;;;;;;5071685;28;20041;-68
2023/11/04 07:54:44;;;;;;;4.38;1.50;;;9.50;99.90;;;;;;5070615;28;20059;-68
2023/11/04 07:57:10;;;;;;;5.50;1.55;;;9.50;99.90;;;;;;5069080;28;20144;-68
2023/11/04 07:59:36;;;;;;;2.38;1.83;;;9.50;99.90;;;;;;5071362;28;20177;-68
2023/11/04 08:02:03;;;;;;;6.03;1.77;;;9.60;99.90;;;;;;5071800;28;20068;-68
2023/11/04 08:04:29;;;;;;;2.30;1.50;;;9.60;99.90;;;;;;5069812;28;20040;-68
2023/11/04 08:06:54;;;;;;;5.38;1.92;;;9.60;99.90;;;;;;5069526;28;20132;-68
2023/11/04 08:09:20;;;;;;;2.67;2.15;;;9.50;99.90;;;;;;5068209;28;20048;-68
2023/11/04 08:11:46;;;;;;;2.00;1.40;;;9.50;99.90;;;;;;5051962;28;20032;-68
2023/11/04 08:14:12;;;;;;;4.68;1.40;;;9.50;99.90;;;;;;5067916;28;20120;-68
2023/11/04 08:16:38;;;;;;;3.58;1.30;;;9.50;99.90;;;;;;5085194;28;20044;-68
2023/11/04 08:19:05;;;;;;;2.92;1.30;;;9.40;99.90;;;;;;5069862;28;20086;-68
2023/11/04 08:21:31;;;;;;;2.83;1.60;;;9.50;99.90;;;;;;5069125;28;20049;-68
2023/11/04 08:23:58;;;;;;;5.45;1.40;;;9.50;99.90;;;;;;5069626;28;20043;-68
2023/11/04 08:26:23;;;;;;;5.10;1.58;;;9.50;99.90;;;;;;5067583;28;20032;-68
2023/11/04 08:28:51;;;;;;;4.60;1.85;;;9.50;99.90;;;;;;5067487;28;20090;-68
2023/11/04 08:31:17;;;;;;;3.70;1.20;;;9.50;99.90;;;;;;5067721;28;20040;-68
2023/11/04 08:33:43;;;;;;;3.65;1.50;;;9.50;99.90;;;;;;5098294;28;20056;-68
2023/11/04 08:36:09;;;;;;;6.63;1.45;;;9.50;99.90;;;;;;5069272;28;20036;-68
2023/11/04 08:38:35;;;;;;;2.40;1.25;;;9.60;99.90;;;;;;5069288;28;20127;-68
2023/11/04 08:41:00;;;;;;;5.00;1.83;;;9.50;99.90;;;;;;5069021;28;20102;-68
2023/11/04 08:43:26;;;;;;;5.75;1.55;;;9.60;99.90;;;;;;5069378;28;20044;-68
2023/11/04 08:45:51;;;;;;;6.43;2.08;;;9.60;99.90;;;;;;5068787;28;20113;-68
2023/11/04 08:48:17;;;;;;;3.08;1.40;;;9.60;99.90;;;;;;5069071;28;20036;-68
2023/11/04 08:50:43;;;;;;;4.57;1.40;;;9.60;99.90;;;;;;5068704;28;20028;-68
2023/11/04 08:53:08;;;;;;;3.20;1.20;;;9.60;99.90;;;;;;5068516;28;20043;-68
2023/11/04 08:55:34;;;;;;;2.53;1.55;;;9.60;99.90;;;;;;5070500;28;20036;-68
2023/11/04 08:58:00;;;;;;;4.10;2.03;;;9.70;99.90;;;;;;5068171;28;20132;-68
2023/11/04 09:00:25;;;;;;;4.03;2.10;;;9.60;99.90;;;;;;5066196;28;20371;-68
2023/11/04 09:02:52;;;;;;;7.93;2.60;;;9.60;99.90;;;;;;5068811;28;20521;-68
2023/11/04 09:05:17;;;;;;;6.90;2.40;;;9.60;99.90;;;;;;5068076;28;20037;-68
2023/11/04 09:07:44;;;;;;;6.65;2.03;;;9.60;99.90;;;;;;5066448;28;20063;-68
2023/11/04 09:10:10;;;;;;;5.53;1.88;;;9.60;99.90;;;;;;5066435;28;20052;-68
2023/11/04 09:12:35;;;;;;;6.22;1.50;;;9.60;99.90;;;;;;5066198;28;20045;-68
2023/11/04 09:15:02;;;;;;;4.30;1.65;;;9.60;99.90;;;;;;5065477;28;20077;-68
2023/11/04 09:17:27;;;;;;;5.63;1.67;;;9.60;99.90;;;;;;5067371;28;20502;-68
2023/11/04 09:19:53;;;;;;;6.25;1.33;;;9.60;99.90;;;;;;5066580;28;20079;-68
2023/11/04 09:22:20;;;;;;;2.45;1.35;;;9.70;99.90;;;;;;5066617;28;20375;-69
2023/11/04 09:24:47;;;;;;;3.45;1.20;;;9.70;99.90;;;;;;5066094;28;20509;-68
2023/11/04 09:27:12;;;;;;;3.95;1.50;;;9.70;99.90;;;;;;5066887;28;20099;-68
2023/11/04 09:29:38;;;;;;;5.50;1.30;;;9.80;99.90;;;;;;5067807;28;20040;-69
2023/11/04 09:32:04;;;;;;;3.08;1.35;;;9.80;99.90;;;;;;5068137;28;20032;-69
2023/11/04 09:34:30;;;;;;;2.35;1.08;;;9.90;99.90;;;;;;5063111;28;20044;-68
2023/11/04 09:36:56;;;;;;;8.77;1.13;;;10.00;99.90;;;;;;5067136;28;20037;-68
2023/11/04 09:39:22;;;;;;;5.78;1.02;;;10.10;99.90;;;;;;5043975;28;20070;-68
2023/11/04 09:41:51;;;;;;;2.33;0.88;;;10.20;99.90;;;;;;5067384;28;20036;-68
2023/11/04 09:44:18;;;;;;;5.28;1.20;;;10.20;99.90;;;;;;5069466;28;20071;-68
2023/11/04 09:46:45;;;;;;;4.65;0.93;;;10.30;99.90;;;;;;5066824;28;20051;-68
2023/11/04 09:49:11;;;;;;;2.53;0.70;;;10.30;99.90;;;;;;5066386;28;20041;-68
2023/11/04 09:51:37;;;;;;;2.88;0.73;;;10.30;99.90;;;;;;5067125;28;20090;-68
2023/11/04 09:54:07;;;;;;;4.28;0.63;;;10.40;99.90;;;;;;5098302;28;20041;-68
2023/11/04 09:56:33;;;;;;;2.38;0.77;;;10.30;99.90;;;;;;5069004;28;20033;-68
2023/11/04 09:58:59;;;;;;;9.98;2.05;;;10.30;99.90;;;;;;5068212;28;20449;-68
2023/11/04 10:01:24;;;;;;;4.72;0.90;;;10.30;99.90;;;;;;5068530;28;20037;-69
2023/11/04 10:03:51;;;;;;;4.70;0.82;;;10.30;99.90;;;;;;5066749;28;20172;-68
2023/11/04 10:06:17;;;;;;;3.95;0.95;;;10.30;99.90;;;;;;5065955;28;20128;-68
2023/11/04 10:08:43;;;;;;;2.92;0.60;;;10.20;99.90;;;;;;5066203;28;20036;-68
2023/11/04 10:11:09;;;;;;;3.72;0.73;;;10.20;99.90;;;;;;5067798;28;20098;-68
2023/11/04 10:13:47;;;;;;;4.45;0.70;;;10.20;99.90;;;;;;5066476;28;20123;-68
2023/11/04 10:16:14;;;;;;;6.03;0.82;;;10.30;99.90;;;;;;5079617;28;20036;-70
2023/11/04 10:18:41;;;;;;;5.00;0.52;;;10.20;99.90;;;;;;5067306;28;20554;-67
2023/11/04 10:21:07;;;;;;;9.48;1.05;;;10.20;99.90;;;;;;5064265;28;21423;-67
2023/11/04 10:23:33;;;;;;;1.80;0.55;;;10.30;99.90;;;;;;5066437;28;20040;-70
2023/11/04 10:26:03;;;;;;;3.92;0.98;;;10.20;99.90;;;;;;5082015;28;20042;-67
2023/11/04 10:28:32;;;;;;;3.30;0.75;;;10.30;99.90;;;;;;5074290;28;20551;-67
2023/11/04 10:31:07;;;;;;;4.75;0.80;;;10.20;99.90;;;;;;5072291;28;20498;-67
2023/11/04 10:33:35;;;;;;;1.80;0.60;;;10.30;99.90;;;;;;5072092;28;20037;-69
2023/11/04 10:36:03;;;;;;;3.20;1.40;;;10.50;99.90;;;;;;5083810;28;20048;-67
2023/11/04 10:38:32;;;;;;;3.15;0.73;;;10.50;99.90;;;;;;5070695;28;20045;-67
2023/11/04 10:41:01;;;;;;;9.93;1.00;;;10.60;99.90;;;;;;5072865;28;20434;-69
2023/11/04 10:43:37;;;;;;;3.85;0.57;;;10.60;99.90;;;;;;5071300;28;20086;-67
2023/11/04 10:46:10;;;;;;;3.42;0.45;;;10.60;99.90;;;;;;5070619;28;20048;-67
2023/11/04 10:48:42;;;;;;;4.35;0.60;;;10.70;99.90;;;;;;5088162;28;20048;-67
2023/11/04 10:51:17;;;;;;;4.25;0.52;;;10.80;99.90;;;;;;5073673;28;20063;-68
2023/11/04 10:53:50;;;;;;;1.95;0.35;;;10.90;99.90;;;;;;5072926;28;20086;-69
2023/11/04 10:56:24;;;;;;;3.25;0.50;;;11.00;99.90;;;;;;5070336;28;20094;-67
2023/11/04 10:59:13;;;;;;;1.38;0.30;;;11.10;99.90;;;;;;5071476;28;20037;-66
2023/11/04 11:01:41;;;;;;;1.77;0.30;;;11.20;99.90;;;;;;5103395;28;20131;-67
2023/11/04 11:04:09;;;;;;;8.90;1.95;;;11.20;99.90;;;;;;5054682;28;20135;-68
2023/11/04 11:06:36;;;;;;;2.95;0.30;;;11.10;99.90;;;;;;5070152;28;20075;-67
2023/11/04 11:09:05;;;;;;;1.73;0.38;;;11.20;99.90;;;;;;5069003;28;20398;-67
2023/11/04 11:11:44;;;;;;;1.65;0.35;;;11.20;99.90;;;;;;5071070;28;20032;-67
2023/11/04 11:14:11;;;;;;;1.88;0.32;;;11.10;99.90;;;;;;5070106;28;20136;-68
2023/11/04 11:16:37;;;;;;;1.83;0.52;;;11.10;99.90;;;;;;5071249;28;20508;-67
2023/11/04 11:19:07;;;;;;;2.70;0.30;;;11.00;99.90;;;;;;5072096;28;20044;-66
2023/11/04 11:21:44;;;;;;;1.30;0.20;;;11.00;99.90;;;;;;5072279;28;20393;-67
2023/11/04 11:24:10;;;;;;;3.42;0.32;;;11.00;99.90;;;;;;5070431;28;20044;-67
2023/11/04 11:26:47;;;;;;;7.15;1.40;;;10.90;99.90;;;;;;5071235;28;20368;-67
2023/11/04 11:29:24;;;;;;;1.98;0.65;;;10.90;99.90;;;;;;5070688;28;20063;-67
2023/11/04 11:31:51;;;;;;;3.30;0.30;;;10.90;99.90;;;;;;5083294;28;20123;-67
2023/11/04 11:34:18;;;;;;;2.13;0.32;;;10.90;99.90;;;;;;5070680;28;20072;-67
2023/11/04 11:36:46;;;;;;;2.50;0.55;;;10.90;99.90;;;;;;5101967;27;20044;-67
2023/11/04 11:39:13;;;;;;;1.92;0.43;;;10.90;99.90;;;;;;5067812;28;20084;-67
2023/11/04 11:41:39;;;;;;;0.57;0.20;;;11.00;99.90;;;;;;5071132;28;20406;-67
2023/11/04 11:44:08;;;;;;;1.30;0.30;;;11.10;99.90;;;;;;5070644;28;20036;-67
2023/11/04 11:46:33;;;;;;;2.95;0.60;;;11.20;99.90;;;;;;5068953;28;20054;-68
2023/11/04 11:49:00;;;;;;;3.38;0.75;;;11.30;99.90;;;;;;5071078;28;20036;-67
2023/11/04 11:51:28;;;;;;;5.85;0.68;;;11.30;99.90;;;;;;5071274;28;20041;-67
2023/11/04 11:53:53;;;;;;;1.58;0.55;;;11.40;99.90;;;;;;5071035;28;20399;-67
2023/11/04 11:56:19;;;;;;;5.78;1.00;;;11.40;99.90;;;;;;5072261;28;20109;-66
2023/11/04 11:58:45;;;;;;;3.50;0.57;;;11.40;99.90;;;;;;5072931;28;20040;-67
2023/11/04 12:01:11;;;;;;;5.00;0.93;;;11.30;99.90;;;;;;5072153;28;20050;-67
2023/11/04 12:03:37;;;;;;;1.15;0.30;;;11.30;99.90;;;;;;5069983;28;20391;-67
2023/11/04 12:06:04;;;;;;;2.13;0.40;;;11.30;99.90;;;;;;5070230;28;20161;-67
2023/11/04 12:08:30;;;;;;;2.55;0.32;;;11.40;99.90;;;;;;5066522;28;20136;-67
2023/11/04 12:10:56;;;;;;;1.75;0.65;;;11.40;99.90;;;;;;5063674;28;20123;-67
2023/11/04 12:13:22;;;;;;;1.60;0.30;;;11.40;99.90;;;;;;5068885;28;20554;-67
2023/11/04 12:15:48;;;;;;;1.13;0.52;;;11.40;99.90;;;;;;5068289;28;20124;-67
2023/11/04 12:18:14;;;;;;;1.75;0.47;;;11.40;99.90;;;;;;5069103;28;20045;-67
2023/11/04 12:20:44;;;;;;;0.95;0.30;;;11.30;99.90;;;;;;5068584;28;20044;-67
2023/11/04 12:23:11;;;;;;;1.23;0.30;;;11.30;99.90;;;;;;5070832;28;20040;-67
2023/11/04 12:25:37;;;;;;;1.42;0.30;;;11.20;99.90;;;;;;5083243;28;20072;-67
2023/11/04 12:28:06;;;;;;;1.92;0.40;;;11.20;99.90;;;;;;5101650;27;20052;-67
2023/11/04 12:30:32;;;;;;;1.65;0.30;;;11.20;99.90;;;;;;5070164;28;20403;-67
2023/11/04 12:32:59;;;;;;;2.03;0.45;;;11.10;99.90;;;;;;5070089;28;20041;-67
2023/11/04 12:35:25;;;;;;;1.20;0.25;;;11.10;99.90;;;;;;5069067;28;20453;-67
2023/11/04 12:37:54;;;;;;;1.17;0.40;;;11.20;99.90;;;;;;5066923;28;20055;-67
2023/11/04 12:40:21;;;;;;;2.15;0.60;;;11.10;99.90;;;;;;5065305;28;20054;-67
2023/11/04 12:42:48;;;;;;;1.55;0.30;;;11.20;99.90;;;;;;5070055;28;20041;-67
2023/11/04 12:45:15;;;;;;;0.50;0.30;;;11.10;99.90;;;;;;5068069;28;20052;-67
2023/11/04 12:47:41;;;;;;;1.77;0.57;;;11.20;99.90;;;;;;5067238;28;20730;-67
2023/11/04 12:50:08;;;;;;;4.05;0.68;;;11.20;99.90;;;;;;5067486;28;20094;-67
2023/11/04 12:52:34;;;;;;;1.10;0.40;;;11.10;99.90;;;;;;5069307;28;20036;-67